createdAt,value
2017-01-07T00:02:00.920Z,1036.58
2017-01-07T00:07:00.876Z,1036.58
2017-01-07T00:12:00.828Z,1036.61
2017-01-07T00:17:00.780Z,1036.65
2017-01-07T00:22:00.732Z,1036.5
2017-01-07T00:27:00.684Z,1036.39
2017-01-07T00:32:00.640Z,1036.28
2017-01-07T00:37:00.587Z,1036.22
2017-01-07T00:42:00.538Z,1036.16
2017-01-07T00:47:00.487Z,1036.03
2017-01-07T00:52:00.436Z,1035.93
2017-01-07T00:57:00.388Z,1035.81
2017-01-07T01:02:00.349Z,1035.83
2017-01-07T01:07:00.291Z,1035.83
2017-01-07T01:12:00.238Z,1035.98
2017-01-07T01:17:00.189Z,1035.92
2017-01-07T01:22:00.139Z,1035.87
2017-01-07T01:27:00.089Z,1035.82
2017-01-07T01:32:00.039Z,1035.87
2017-01-07T01:36:59.988Z,1035.7
2017-01-07T01:41:59.939Z,1035.58
2017-01-07T01:46:59.889Z,1035.45
2017-01-07T01:51:59.840Z,1035.48
2017-01-07T01:56:59.790Z,1035.53
2017-01-07T02:01:59.740Z,1035.53
2017-01-07T02:06:59.692Z,1035.51
2017-01-07T02:11:59.641Z,1035.35
2017-01-07T02:16:59.594Z,1035.15
2017-01-07T02:21:59.545Z,1035.12
2017-01-07T02:26:59.491Z,1035.01
2017-01-07T02:31:59.441Z,1034.93
2017-01-07T02:36:59.391Z,1034.92
2017-01-07T02:41:59.341Z,1034.95
2017-01-07T02:46:59.290Z,1034.96
2017-01-07T02:51:59.240Z,1034.91
2017-01-07T02:56:59.191Z,1034.87
2017-01-07T03:01:59.137Z,1034.73
2017-01-07T03:06:59.087Z,1034.66
2017-01-07T03:11:59.035Z,1034.59
2017-01-07T03:16:58.985Z,1034.54
2017-01-07T03:21:58.934Z,1034.61
2017-01-07T03:26:58.884Z,1034.54
2017-01-07T03:31:58.834Z,1034.49
2017-01-07T03:36:58.782Z,1034.51
2017-01-07T03:41:58.730Z,1034.49
2017-01-07T03:46:58.681Z,1034.46
2017-01-07T03:51:58.635Z,1034.34
2017-01-07T03:56:58.578Z,1034.21
2017-01-07T04:01:58.526Z,1034.04
2017-01-07T04:06:58.476Z,1033.88
2017-01-07T04:11:58.428Z,1033.81
2017-01-07T04:16:58.373Z,1033.72
2017-01-07T04:21:58.322Z,1033.81
2017-01-07T04:26:58.272Z,1033.85
2017-01-07T04:31:58.220Z,1033.73
2017-01-07T04:36:58.167Z,1033.75
2017-01-07T04:41:58.115Z,1033.67
2017-01-07T04:46:58.063Z,1033.44
2017-01-07T04:51:58.012Z,1033.58
2017-01-07T04:56:57.958Z,1033.59
2017-01-07T05:01:57.907Z,1033.35
2017-01-07T05:06:57.863Z,1033.32
2017-01-07T05:11:57.801Z,1033.15
2017-01-07T05:16:57.749Z,1033.05
2017-01-07T05:21:57.700Z,1033
2017-01-07T05:26:57.644Z,1033.04
2017-01-07T05:31:57.591Z,1032.99
2017-01-07T05:36:57.543Z,1033.01
2017-01-07T05:41:57.486Z,1033.01
2017-01-07T05:46:57.436Z,1032.99
2017-01-07T05:51:57.381Z,1032.98
2017-01-07T05:56:57.333Z,1032.91
2017-01-07T06:01:57.271Z,1032.8
2017-01-07T06:06:57.222Z,1032.76
2017-01-07T06:11:57.168Z,1032.75
2017-01-07T06:16:57.112Z,1032.74
2017-01-07T06:21:57.058Z,1032.79
2017-01-07T06:26:57.006Z,1032.73
2017-01-07T06:31:56.954Z,1032.73
2017-01-07T06:36:56.904Z,1032.72
2017-01-07T06:41:56.854Z,1032.79
2017-01-07T06:46:56.806Z,1032.76
2017-01-07T06:51:56.761Z,1032.75
2017-01-07T06:56:56.719Z,1032.67
2017-01-07T07:01:56.681Z,1032.66
2017-01-07T07:06:56.637Z,1032.69
2017-01-07T07:11:56.595Z,1032.62
2017-01-07T07:16:56.555Z,1032.62
2017-01-07T07:21:56.523Z,1032.56
2017-01-07T07:26:56.474Z,1032.53
2017-01-07T07:31:56.435Z,1032.58
2017-01-07T07:36:56.393Z,1032.57
2017-01-07T07:41:56.353Z,1032.54
2017-01-07T07:46:56.311Z,1032.45
2017-01-07T07:51:56.268Z,1032.5
2017-01-07T07:56:56.226Z,1032.44
2017-01-07T08:01:56.185Z,1032.39
2017-01-07T08:06:56.144Z,1032.34
2017-01-07T08:11:56.102Z,1032.37
2017-01-07T08:16:56.061Z,1032.42
2017-01-07T08:21:56.021Z,1032.36
2017-01-07T08:26:55.983Z,1032.31
2017-01-07T08:31:55.938Z,1032.22
2017-01-07T08:36:55.898Z,1032.24
2017-01-07T08:41:55.859Z,1032.3
2017-01-07T08:46:55.819Z,1032.28
2017-01-07T08:51:55.773Z,1032.19
2017-01-07T08:56:55.732Z,1032.23
2017-01-07T09:01:55.695Z,1032.21
2017-01-07T09:06:55.651Z,1032.22
2017-01-07T09:11:55.616Z,1032.24
2017-01-07T09:16:55.567Z,1032.31
2017-01-07T09:21:55.526Z,1032.27
2017-01-07T09:26:55.485Z,1032.29
2017-01-07T09:31:55.442Z,1032.32
2017-01-07T09:36:55.402Z,1032.29
2017-01-07T09:41:55.361Z,1032.29
2017-01-07T09:46:55.322Z,1032.21
2017-01-07T09:51:55.289Z,1032.21
2017-01-07T09:56:55.242Z,1032.17
2017-01-07T10:01:55.204Z,1032.11
2017-01-07T10:06:55.164Z,1032.04
2017-01-07T10:11:55.124Z,1031.91
2017-01-07T10:16:55.086Z,1031.83
2017-01-07T10:21:55.044Z,1031.88
2017-01-07T10:26:55.005Z,1031.82
2017-01-07T10:31:54.966Z,1031.81
2017-01-07T10:36:54.923Z,1031.77
2017-01-07T10:41:54.885Z,1031.72
2017-01-07T10:46:54.856Z,1031.67
2017-01-07T10:51:54.810Z,1031.61
2017-01-07T10:56:54.785Z,1031.58
2017-01-07T11:01:54.731Z,1031.55
2017-01-07T11:06:54.694Z,1031.55
2017-01-07T11:11:54.656Z,1031.45
2017-01-07T11:16:54.616Z,1031.46
2017-01-07T11:21:54.583Z,1031.44
2017-01-07T11:26:54.546Z,1031.35
2017-01-07T11:31:54.507Z,1031.35
2017-01-07T11:36:54.472Z,1031.36
2017-01-07T11:41:54.435Z,1031.33
2017-01-07T11:46:54.396Z,1031.2
2017-01-07T11:51:54.361Z,1031.21
2017-01-07T11:56:54.323Z,1031.16
2017-01-07T12:01:54.288Z,1031.17
2017-01-07T12:06:54.250Z,1031.13
2017-01-07T12:11:54.210Z,1031.08
2017-01-07T12:16:54.177Z,1031.08
2017-01-07T12:21:54.144Z,1031.02
2017-01-07T12:26:54.116Z,1030.87
2017-01-07T12:31:54.074Z,1030.84
2017-01-07T12:36:54.041Z,1030.78
2017-01-07T12:41:54.007Z,1030.69
2017-01-07T12:46:53.973Z,1030.75
2017-01-07T12:51:53.938Z,1030.67
2017-01-07T12:56:53.902Z,1030.59
2017-01-07T13:01:53.864Z,1030.55
2017-01-07T13:06:53.830Z,1030.61
2017-01-07T13:11:53.792Z,1030.62
2017-01-07T13:16:53.755Z,1030.56
2017-01-07T13:21:53.725Z,1030.56
2017-01-07T13:26:53.681Z,1030.46
2017-01-07T13:31:53.648Z,1030.44
2017-01-07T13:36:53.613Z,1030.42
2017-01-07T13:41:53.572Z,1030.43
2017-01-07T13:46:53.536Z,1030.38
2017-01-07T13:51:53.503Z,1030.28
2017-01-07T13:56:53.471Z,1030.32
2017-01-07T14:01:53.433Z,1030.34
2017-01-07T14:06:53.397Z,1030.27
2017-01-07T14:11:53.360Z,1030.2
2017-01-07T14:16:53.330Z,1030.15
2017-01-07T14:21:53.294Z,1030.22
2017-01-07T14:26:53.255Z,1030.2
2017-01-07T14:31:53.221Z,1030.12
2017-01-07T14:36:53.186Z,1030.14
2017-01-07T17:53:26.273Z,1030.17
2017-01-07T17:58:26.248Z,1030.21
2017-01-07T18:03:26.222Z,1030.19
2017-01-07T18:08:26.194Z,1030.17
2017-01-07T18:13:26.169Z,1030.26
2017-01-07T18:18:26.150Z,1030.22
2017-01-07T18:23:26.124Z,1030.2
2017-01-07T18:28:26.092Z,1030.08
2017-01-07T18:33:26.066Z,1030.14
2017-01-07T18:38:26.040Z,1030.2
2017-01-07T18:43:26.017Z,1030.07
2017-01-07T18:48:25.994Z,1030.05
2017-01-07T18:53:25.969Z,1030.1
2017-01-07T18:58:25.950Z,1030.05
2017-01-07T19:03:25.924Z,1030.1
2017-01-07T19:08:25.902Z,1030.07
2017-01-07T19:13:25.881Z,1030.1
2017-01-07T19:18:25.858Z,1030.14
2017-01-07T19:23:25.837Z,1030.08
2017-01-07T19:28:25.811Z,1029.98
2017-01-07T19:33:25.801Z,1030.09
2017-01-07T19:38:25.764Z,1030.06
2017-01-07T19:43:25.765Z,1030.04
2017-01-07T19:48:25.752Z,1029.99
2017-01-07T19:53:25.689Z,1030
2017-01-07T19:58:25.720Z,1030.05
2017-01-07T20:03:25.656Z,1030.08
2017-01-07T20:08:25.684Z,1030.15
2017-01-07T20:13:25.592Z,1030.23
2017-01-07T20:18:25.568Z,1030.24
2017-01-07T20:23:25.542Z,1030.33
2017-01-07T20:28:25.518Z,1030.38
2017-01-07T20:33:25.492Z,1030.42
2017-01-07T20:38:25.547Z,1030.44
2017-01-07T20:43:25.441Z,1030.52
2017-01-07T20:48:25.415Z,1030.5
2017-01-07T20:53:25.472Z,1030.52
2017-01-07T20:58:25.365Z,1030.46
2017-01-07T21:03:25.421Z,1030.41
2017-01-07T21:08:25.314Z,1030.46
2017-01-07T21:13:25.364Z,1030.49
2017-01-07T21:18:25.340Z,1030.52
2017-01-07T21:23:25.378Z,1030.48
2017-01-07T21:28:25.287Z,1030.44
2017-01-07T21:33:25.188Z,1030.57
2017-01-07T21:38:25.160Z,1030.58
2017-01-07T21:43:25.198Z,1030.59
2017-01-07T21:48:25.108Z,1030.55
2017-01-07T21:53:25.080Z,1030.62
2017-01-07T21:58:25.088Z,1030.64
2017-01-07T22:03:25.030Z,1030.56
2017-01-07T22:08:25.000Z,1030.57
2017-01-07T22:13:24.970Z,1030.56
2017-01-07T22:18:24.977Z,1030.54
2017-01-07T22:23:24.940Z,1030.52
2017-01-07T22:28:24.889Z,1030.48
2017-01-07T22:33:24.864Z,1030.52
2017-01-07T22:38:24.840Z,1030.51
2017-01-07T22:43:24.810Z,1030.5
2017-01-07T22:48:24.782Z,1030.57
2017-01-07T22:53:24.757Z,1030.57
2017-01-07T22:58:24.728Z,1030.55
2017-01-07T23:03:24.699Z,1030.51
2017-01-07T23:08:24.673Z,1030.57
2017-01-07T23:13:24.644Z,1030.59
2017-01-07T23:18:24.614Z,1030.55
2017-01-07T23:23:24.586Z,1030.46
2017-01-07T23:28:24.558Z,1030.41
2017-01-07T23:33:24.529Z,1030.4
2017-01-07T23:38:24.500Z,1030.32
2017-01-07T23:43:24.466Z,1030.32
2017-01-07T23:48:24.438Z,1030.3
2017-01-07T23:53:24.412Z,1030.3
2017-01-07T23:58:24.374Z,1030.33
